Time;durP1;ratioP1;P1;durP2;ratioP2;P2;SDS_P1;SDS_P2;PMS_P1;PMS_P2;Temp;Humidity;BMP_temperature;BMP_pressure;BME280_temperature;BME280_humidity;BME280_pressure;Samples;Min_cycle;Max_cycle;Signal;HPM_P1;HPM_P2
2021/12/31 00:02:26;;;;;;;0.75;0.35;;;;;;;15.92;100.00;99123.19;4910907;29;20050;-54
2021/12/31 00:05:30;;;;;;;1.45;0.32;;;;;;;15.88;100.00;99122.72;4902182;28;20397;-54
2021/12/31 00:08:33;;;;;;;7.80;0.40;;;;;;;15.86;100.00;99130.16;4943775;28;20507;-54
2021/12/31 00:11:38;;;;;;;2.63;0.52;;;;;;;15.90;100.00;99153.06;4974609;28;20053;-54
2021/12/31 00:18:56;;;;;;;;;;;;;;;15.85;100.00;99151.13;4979782;28;20065;-54
2021/12/31 00:22:14;;;;;;;0.77;0.25;;;;;;;15.88;100.00;99144.41;4902902;28;20363;-54
2021/12/31 00:25:21;;;;;;;0.45;0.32;;;;;;;15.97;100.00;99162.94;4858735;29;20511;-54
2021/12/31 00:28:44;;;;;;;;;;;;;;;;;;;;;
2021/12/31 00:31:54;;;;;;;3.40;0.77;;;;;;;15.92;100.00;99161.72;4878643;29;19919;-52
2021/12/31 00:39:09;;;;;;;1.38;0.40;;;;;;;15.79;100.00;99158.81;5134118;27;20414;-48
2021/12/31 00:42:25;;;;;;;0.10;0.00;;;;;;;15.71;100.00;99144.63;5042397;28;20064;-48
2021/12/31 00:45:41;;;;;;;;;;;;;;;;;;;;;
2021/12/31 00:48:56;;;;;;;;;;;;;;;;;;;;;
2021/12/31 00:52:08;;;;;;;0.57;0.40;;;;;;;15.70;100.00;99133.94;4961712;28;20053;-48
2021/12/31 00:55:16;;;;;;;0.63;0.20;;;;;;;15.66;100.00;99134.22;4967994;28;20065;-46
2021/12/31 01:02:16;;;;;;;;;;;;;;;;;;;;;
2021/12/31 01:05:38;;;;;;;1.25;0.10;;;;;;;15.66;100.00;99122.22;4948355;28;20069;-52
2021/12/31 01:09:30;;;;;;;0.90;0.10;;;;;;;15.65;100.00;99118.69;4950194;28;20073;-52
2021/12/31 01:12:35;;;;;;;0.10;0.00;;;;;;;15.73;100.00;99121.63;4909222;28;20542;-52
2021/12/31 01:15:44;;;;;;;1.88;0.80;;;;;;;15.76;100.00;99110.13;4910060;28;20059;-52
2021/12/31 01:22:46;;;;;;;1.02;0.77;;;;;;;15.80;100.00;99109.81;4891935;29;20258;-52
2021/12/31 01:25:45;;;;;;;1.85;0.20;;;;;;;15.86;100.00;99111.25;5041656;28;20148;-56
2021/12/31 01:28:49;;;;;;;4.30;0.80;;;;;;;15.92;100.00;99113.97;5044896;28;20052;-55
2021/12/31 01:31:55;;;;;;;1.95;0.30;;;;;;;15.93;100.00;99112.72;4989341;28;20429;-54
2021/12/31 01:34:59;;;;;;;2.47;0.45;;;;;;;15.92;100.00;99097.13;4993666;28;20781;-55
2021/12/31 01:38:02;;;;;;;3.55;1.70;;;;;;;15.87;100.00;99103.59;5010464;28;20076;-54
2021/12/31 01:41:06;;;;;;;0.38;0.17;;;;;;;15.90;100.00;99097.69;5010081;28;20060;-54
2021/12/31 01:44:09;;;;;;;0.10;0.10;;;;;;;15.85;100.00;99092.88;5027897;28;20065;-54
2021/12/31 01:47:16;;;;;;;1.38;0.63;;;;;;;15.87;100.00;99095.91;5009962;28;20064;-54
2021/12/31 01:50:21;;;;;;;1.05;0.22;;;;;;;15.88;100.00;99094.63;5030565;28;20064;-53
2021/12/31 01:53:26;;;;;;;2.22;0.45;;;;;;;15.89;100.00;99095.41;5034620;28;20068;-54
2021/12/31 01:56:34;;;;;;;0.30;0.20;;;;;;;15.94;100.00;99092.50;5058449;28;20049;-54
2021/12/31 01:59:38;;;;;;;0.52;0.10;;;;;;;15.98;100.00;99097.84;5042643;28;20052;-54
2021/12/31 02:02:46;;;;;;;0.43;0.25;;;;;;;15.92;100.00;99105.56;5045125;28;20060;-54
2021/12/31 02:05:50;;;;;;;0.10;0.00;;;;;;;15.86;100.00;99102.06;5007712;28;20072;-54
2021/12/31 02:08:55;;;;;;;3.63;0.55;;;;;;;15.90;100.00;99102.53;5022656;28;20632;-54
2021/12/31 02:11:58;;;;;;;0.63;0.10;;;;;;;15.88;100.00;99099.50;5031154;28;20067;-55
2021/12/31 02:15:03;;;;;;;1.65;0.35;;;;;;;15.95;100.00;99098.91;5010271;28;20432;-55
2021/12/31 02:18:09;;;;;;;0.75;0.63;;;;;;;16.00;100.00;99111.34;5020707;28;20524;-55
2021/12/31 02:21:13;;;;;;;1.75;0.35;;;;;;;16.03;100.00;99099.81;5053633;28;20114;-54
2021/12/31 02:24:18;;;;;;;0.52;0.40;;;;;;;16.05;100.00;99102.84;5056932;28;20055;-55
2021/12/31 02:27:24;;;;;;;2.65;0.88;;;;;;;16.07;100.00;99096.72;4988340;28;20064;-55
2021/12/31 02:30:29;;;;;;;0.73;0.60;;;;;;;16.06;100.00;99095.94;5042290;28;20500;-54
2021/12/31 02:33:33;;;;;;;7.70;0.32;;;;;;;16.11;100.00;99089.50;5018237;28;20047;-55
2021/12/31 02:36:36;;;;;;;0.20;0.20;;;;;;;16.13;100.00;99086.91;5069764;28;20447;-55
2021/12/31 02:39:42;;;;;;;0.60;0.15;;;;;;;16.19;100.00;99095.25;5050289;28;20052;-54
2021/12/31 02:42:46;;;;;;;1.05;0.55;;;;;;;16.27;100.00;99084.91;5049742;28;20563;-55
2021/12/31 02:45:50;;;;;;;2.20;0.38;;;;;;;16.25;100.00;99093.88;5035642;28;20068;-55
2021/12/31 02:48:56;;;;;;;0.40;0.10;;;;;;;16.30;100.00;99090.22;5018376;28;20065;-53
2021/12/31 02:52:02;;;;;;;3.22;0.75;;;;;;;16.30;100.00;99089.47;5035816;28;20115;-53
2021/12/31 02:55:06;;;;;;;3.95;0.40;;;;;;;16.29;100.00;99099.94;5020420;28;20522;-53
2021/12/31 02:58:10;;;;;;;3.50;0.40;;;;;;;16.21;100.00;99092.66;5042567;28;20508;-54
2021/12/31 03:01:14;;;;;;;0.63;0.50;;;;;;;16.21;100.00;99099.03;5033904;28;20060;-53
2021/12/31 03:04:20;;;;;;;2.30;0.30;;;;;;;16.27;100.00;99096.91;5020366;28;20053;-54
2021/12/31 03:07:24;;;;;;;0.15;0.05;;;;;;;16.25;100.00;99102.31;5009246;28;20396;-53
2021/12/31 03:10:29;;;;;;;0.17;0.15;;;;;;;16.31;100.00;99099.41;5033682;28;20060;-53
2021/12/31 03:13:36;;;;;;;1.13;0.13;;;;;;;16.34;100.00;99096.31;5046625;28;20063;-53
2021/12/31 03:16:39;;;;;;;1.85;0.32;;;;;;;16.36;100.00;99088.09;5035698;28;20057;-54
2021/12/31 03:19:44;;;;;;;0.40;0.20;;;;;;;16.30;100.00;99087.44;5046743;28;20064;-55
2021/12/31 03:22:47;;;;;;;0.50;0.25;;;;;;;16.26;100.00;99095.41;5041408;28;20072;-55
2021/12/31 03:25:51;;;;;;;0.32;0.22;;;;;;;16.18;100.00;99083.25;5020924;28;20397;-54
2021/12/31 03:28:54;;;;;;;0.22;0.00;;;;;;;16.39;100.00;99089.84;5033247;28;20061;-54
2021/12/31 03:31:57;;;;;;;0.28;0.28;;;;;;;16.38;100.00;99088.31;5032571;28;20060;-54
2021/12/31 03:35:02;;;;;;;1.00;0.20;;;;;;;16.45;100.00;99087.69;5012304;28;20056;-54
2021/12/31 03:38:06;;;;;;;0.00;0.00;;;;;;;16.47;100.00;99085.13;5048696;28;20574;-54
2021/12/31 03:41:09;;;;;;;0.10;0.00;;;;;;;16.47;100.00;99087.94;5051742;28;20059;-54
2021/12/31 03:44:13;;;;;;;1.10;0.15;;;;;;;16.47;100.00;99081.53;5032457;28;20393;-54
2021/12/31 03:47:16;;;;;;;1.25;0.55;;;;;;;16.48;100.00;99089.44;5010623;28;20736;-54
2021/12/31 03:50:20;;;;;;;0.28;0.10;;;;;;;16.42;100.00;99085.94;5030584;28;20060;-52
2021/12/31 03:53:23;;;;;;;0.47;0.30;;;;;;;16.43;100.00;99086.72;5038256;28;20056;-53
2021/12/31 03:56:30;;;;;;;1.10;0.10;;;;;;;16.42;100.00;99080.34;5029697;28;20060;-53
2021/12/31 03:59:34;;;;;;;1.33;0.22;;;;;;;16.32;100.00;99087.66;5032112;28;20424;-53
2021/12/31 04:02:37;;;;;;;9.95;0.20;;;;;;;16.29;100.00;99099.94;5045822;28;20071;-53
2021/12/31 04:05:42;;;;;;;1.35;0.82;;;;;;;16.14;100.00;99099.66;5015981;28;20547;-53
2021/12/31 04:08:45;;;;;;;0.25;0.13;;;;;;;16.24;100.00;99109.19;4997834;28;20161;-54
2021/12/31 04:11:48;;;;;;;0.73;0.22;;;;;;;16.29;100.00;99105.56;4979097;28;20066;-53
2021/12/31 04:14:52;;;;;;;0.35;0.15;;;;;;;16.27;100.00;99099.72;5010748;28;20063;-53
2021/12/31 04:17:55;;;;;;;0.20;0.10;;;;;;;16.13;100.00;99109.38;5018681;28;20064;-54
2021/12/31 04:21:00;;;;;;;0.63;0.10;;;;;;;16.10;100.00;99104.06;5019698;28;20064;-53
2021/12/31 04:24:08;;;;;;;0.10;0.00;;;;;;;16.05;100.00;99102.84;5017298;28;20052;-53
2021/12/31 04:27:11;;;;;;;1.38;0.40;;;;;;;16.07;100.00;99099.50;5018035;28;20057;-53
2021/12/31 04:30:15;;;;;;;6.03;0.20;;;;;;;16.10;100.00;99096.38;5020307;28;20065;-53
2021/12/31 04:33:19;;;;;;;0.38;0.17;;;;;;;16.13;100.00;99098.16;4981754;28;20073;-52
2021/12/31 04:36:23;;;;;;;0.00;0.00;;;;;;;16.15;100.00;99089.94;5032794;28;20503;-53
2021/12/31 04:39:28;;;;;;;0.22;0.10;;;;;;;16.27;100.00;99080.06;5022791;28;20060;-52
2021/12/31 04:42:32;;;;;;;5.38;0.35;;;;;;;16.31;100.00;99063.63;5052053;28;20104;-52
2021/12/31 04:45:36;;;;;;;0.85;0.15;;;;;;;16.28;100.00;99064.72;5032528;28;20512;-53
2021/12/31 04:48:39;;;;;;;0.35;0.10;;;;;;;16.27;100.00;99060.38;5030982;28;20068;-53
2021/12/31 04:51:43;;;;;;;0.82;0.10;;;;;;;16.29;100.00;99052.19;5017418;28;20157;-52
2021/12/31 04:54:46;;;;;;;0.00;0.00;;;;;;;16.25;100.00;99050.97;5041508;28;20064;-53
2021/12/31 04:57:50;;;;;;;0.85;0.10;;;;;;;16.19;100.00;99055.91;5045067;28;20056;-53
2021/12/31 05:00:53;;;;;;;1.23;0.73;;;;;;;16.15;100.00;99047.03;5039371;28;20096;-53
2021/12/31 05:03:56;;;;;;;2.83;1.00;;;;;;;16.27;100.00;99035.09;5023642;28;20079;-52
2021/12/31 05:07:00;;;;;;;0.10;0.10;;;;;;;16.25;100.00;99048.91;5014470;28;20048;-53
2021/12/31 05:10:04;;;;;;;1.88;0.10;;;;;;;16.38;100.00;99046.16;5018180;28;20471;-53
2021/12/31 05:13:10;;;;;;;1.13;0.45;;;;;;;16.29;100.00;99052.19;5042814;28;20401;-53
2021/12/31 05:16:13;;;;;;;0.73;0.00;;;;;;;16.30;100.00;99050.13;5000637;28;20060;-52
2021/12/31 05:19:16;;;;;;;0.10;0.00;;;;;;;16.16;100.00;99062.59;5006374;28;20060;-53
2021/12/31 05:22:20;;;;;;;0.32;0.20;;;;;;;16.08;100.00;99068.06;5030065;28;20053;-50
2021/12/31 05:25:23;;;;;;;0.00;0.00;;;;;;;16.21;100.00;99062.53;5007445;28;20425;-52
2021/12/31 05:28:27;;;;;;;0.10;0.05;;;;;;;16.23;100.00;99064.78;5031226;28;20063;-52
2021/12/31 05:31:30;;;;;;;7.22;0.52;;;;;;;16.23;100.00;99073.97;5033739;28;20798;-52
2021/12/31 05:34:34;;;;;;;2.40;0.10;;;;;;;16.22;100.00;99068.91;5048821;28;20048;-52
2021/12/31 05:37:37;;;;;;;0.17;0.10;;;;;;;16.21;100.00;99075.81;5029589;28;20072;-53
2021/12/31 05:40:41;;;;;;;0.63;0.32;;;;;;;16.18;100.00;99068.44;5006793;28;20050;-52
2021/12/31 05:43:44;;;;;;;0.00;0.00;;;;;;;16.14;100.00;99087.66;5027554;28;20080;-52
2021/12/31 05:46:50;;;;;;;1.65;0.20;;;;;;;16.22;100.00;99089.31;5028361;28;20080;-52
2021/12/31 05:49:53;;;;;;;0.15;0.05;;;;;;;16.24;100.00;99086.72;5029115;28;20068;-53
2021/12/31 05:52:59;;;;;;;0.80;0.47;;;;;;;16.30;100.00;99089.47;5028933;28;20056;-53
2021/12/31 05:56:03;;;;;;;0.08;0.08;;;;;;;16.31;100.00;99097.34;5024735;28;20513;-57
2021/12/31 05:59:07;;;;;;;0.10;0.00;;;;;;;16.24;100.00;99103.59;5015967;28;20075;-53
2021/12/31 06:02:10;;;;;;;0.70;0.35;;;;;;;16.28;100.00;99103.28;5011055;28;20076;-53
2021/12/31 06:05:14;;;;;;;0.80;0.10;;;;;;;16.33;100.00;99111.63;5009488;28;20445;-53
2021/12/31 06:08:17;;;;;;;6.20;0.28;;;;;;;16.43;100.00;99126.84;4990702;28;20072;-53
2021/12/31 06:11:21;;;;;;;1.17;0.32;;;;;;;16.48;100.00;99122.41;5019498;28;20141;-50
2021/12/31 06:14:25;;;;;;;0.55;0.30;;;;;;;16.44;100.00;99131.16;5030012;28;20098;-52
2021/12/31 06:17:29;;;;;;;2.40;0.10;;;;;;;16.33;100.00;99139.00;5039244;28;20060;-52
2021/12/31 06:20:32;;;;;;;0.00;0.00;;;;;;;16.20;100.00;99141.72;5053344;28;20060;-53
2021/12/31 06:23:35;;;;;;;0.10;0.10;;;;;;;16.33;100.00;99153.78;5054330;28;20056;-53
2021/12/31 06:26:39;;;;;;;3.03;0.43;;;;;;;16.25;100.00;99155.69;5035122;28;20075;-53
2021/12/31 06:29:42;;;;;;;2.45;0.43;;;;;;;16.20;100.00;99155.78;5025177;28;20071;-53
2021/12/31 06:32:46;;;;;;;1.15;0.25;;;;;;;16.16;100.00;99152.47;4967493;28;21088;-53
2021/12/31 06:35:50;;;;;;;0.80;0.55;;;;;;;16.18;100.00;99159.09;5002433;28;20523;-52
2021/12/31 06:38:54;;;;;;;2.35;0.60;;;;;;;16.21;100.00;99155.25;4981238;28;20060;-52
2021/12/31 06:41:59;;;;;;;0.65;0.13;;;;;;;16.17;100.00;99162.44;4960533;28;20556;-52
2021/12/31 06:45:04;;;;;;;4.95;0.32;;;;;;;16.11;100.00;99156.91;4984826;28;20058;-53
2021/12/31 06:48:07;;;;;;;1.00;0.30;;;;;;;16.15;100.00;99165.78;4992492;28;20062;-53
2021/12/31 06:51:10;;;;;;;1.63;0.40;;;;;;;16.22;100.00;99165.16;4958800;28;20227;-53
2021/12/31 06:54:14;;;;;;;7.57;0.38;;;;;;;16.28;100.00;99165.88;4963067;28;20410;-53
2021/12/31 06:57:17;;;;;;;11.15;0.47;;;;;;;16.28;100.00;99168.69;4944946;28;20066;-52
2021/12/31 07:00:20;;;;;;;2.40;0.40;;;;;;;16.28;100.00;99168.69;4952227;28;20071;-52
2021/12/31 07:03:24;;;;;;;1.52;0.08;;;;;;;16.27;100.00;99175.59;4944232;28;20054;-52
2021/12/31 07:06:27;;;;;;;0.08;0.00;;;;;;;16.24;100.00;99181.50;4961116;28;20070;-52
2021/12/31 07:09:31;;;;;;;0.10;0.00;;;;;;;16.16;100.00;99180.56;4952821;28;20062;-52
2021/12/31 07:12:35;;;;;;;24.33;3.85;;;;;;;16.19;100.00;99180.28;4953416;28;20066;-52
2021/12/31 07:15:44;;;;;;;0.50;0.40;;;;;;;16.25;100.00;99189.41;4952013;28;20073;-52
2021/12/31 07:18:47;;;;;;;0.85;0.30;;;;;;;16.29;100.00;99184.25;4956937;28;20054;-52
2021/12/31 07:21:50;;;;;;;3.15;0.20;;;;;;;16.26;100.00;99184.56;4953897;28;20066;-52
2021/12/31 07:24:54;;;;;;;0.55;0.13;;;;;;;16.32;100.00;99188.03;4940359;28;20066;-52
2021/12/31 07:27:58;;;;;;;3.90;0.65;;;;;;;16.37;100.00;99196.38;5045259;28;20060;-52
2021/12/31 07:31:01;;;;;;;0.63;0.20;;;;;;;16.30;100.00;99202.63;5013972;28;20053;-53
2021/12/31 07:34:04;;;;;;;0.50;0.40;;;;;;;16.28;100.00;99204.44;4998031;28;20220;-52
2021/12/31 07:37:08;;;;;;;0.90;0.30;;;;;;;16.23;100.00;99205.28;4980120;28;20065;-53
2021/12/31 07:40:12;;;;;;;0.47;0.20;;;;;;;16.25;100.00;99206.25;4989877;28;20128;-53
2021/12/31 07:43:16;;;;;;;0.20;0.20;;;;;;;16.28;100.00;99208.03;4971515;28;20065;-53
2021/12/31 07:46:20;;;;;;;1.52;0.30;;;;;;;16.40;100.00;99205.81;4972528;28;20121;-53
2021/12/31 07:49:23;;;;;;;1.98;0.30;;;;;;;16.48;100.00;99201.84;4950717;28;20404;-52
2021/12/31 07:52:26;;;;;;;7.88;0.50;;;;;;;16.58;100.00;99205.84;4952447;28;20097;-53
2021/12/31 07:55:30;;;;;;;0.50;0.20;;;;;;;16.58;100.00;99194.59;4954065;28;20053;-52
2021/12/31 07:58:34;;;;;;;0.00;0.00;;;;;;;16.60;100.00;99192.03;4962772;28;20070;-54
2021/12/31 08:01:37;;;;;;;0.15;0.15;;;;;;;16.60;100.00;99196.88;4949110;28;20061;-54
2021/12/31 08:04:41;;;;;;;0.20;0.00;;;;;;;16.57;100.00;99204.31;4951894;28;20435;-54
2021/12/31 08:07:44;;;;;;;0.10;0.00;;;;;;;16.61;100.00;99207.59;4935435;28;20997;-53
2021/12/31 08:10:47;;;;;;;0.65;0.03;;;;;;;16.57;100.00;99209.19;4945569;28;20057;-54
2021/12/31 08:13:51;;;;;;;0.93;0.38;;;;;;;16.63;100.00;99219.06;4992098;28;20064;-54
2021/12/31 08:16:55;;;;;;;1.17;0.40;;;;;;;16.57;100.00;99221.19;4980341;28;20407;-54
2021/12/31 08:19:58;;;;;;;8.50;0.20;;;;;;;16.58;100.00;99222.72;5002338;28;20056;-54
2021/12/31 08:23:06;;;;;;;0.22;0.13;;;;;;;16.46;100.00;99212.09;5033900;28;20064;-54
2021/12/31 08:26:10;;;;;;;1.95;0.47;;;;;;;16.52;100.00;99224.81;5015554;28;20052;-57
2021/12/31 08:29:15;;;;;;;0.13;0.13;;;;;;;16.56;100.00;99233.75;5042690;28;20435;-55
2021/12/31 08:32:19;;;;;;;0.00;0.00;;;;;;;16.57;100.00;99226.81;5022576;28;20531;-55
2021/12/31 08:35:24;;;;;;;1.23;0.20;;;;;;;16.56;100.00;99233.75;4968522;28;20053;-55
2021/12/31 08:38:28;;;;;;;0.57;0.28;;;;;;;16.63;100.00;99238.72;4989484;28;20454;-55
2021/12/31 08:41:31;;;;;;;0.63;0.03;;;;;;;16.62;100.00;99234.41;5008924;28;20069;-57
2021/12/31 08:44:35;;;;;;;0.10;0.00;;;;;;;16.59;100.00;99246.72;4989888;28;20101;-57
2021/12/31 08:47:38;;;;;;;0.52;0.13;;;;;;;16.67;100.00;99255.31;4978663;28;20061;-57
2021/12/31 08:50:41;;;;;;;1.25;0.40;;;;;;;16.63;100.00;99252.78;4976507;28;20088;-55
2021/12/31 08:53:45;;;;;;;0.30;0.10;;;;;;;16.72;100.00;99268.53;4982838;28;20409;-56
2021/12/31 08:56:48;;;;;;;0.15;0.00;;;;;;;16.69;100.00;99278.03;4965472;28;20052;-55
2021/12/31 08:59:51;;;;;;;0.20;0.15;;;;;;;16.74;100.00;99279.25;4962337;28;20062;-55
2021/12/31 09:02:55;;;;;;;0.20;0.10;;;;;;;16.79;100.00;99275.59;4921615;29;20523;-56
2021/12/31 09:05:58;;;;;;;0.60;0.10;;;;;;;16.82;100.00;99280.16;4900502;29;20423;-55
2021/12/31 09:09:03;;;;;;;1.35;0.30;;;;;;;16.83;100.00;99288.06;4926010;28;20062;-55
2021/12/31 09:12:08;;;;;;;0.10;0.00;;;;;;;16.87;100.00;99288.50;4921961;29;20133;-55
2021/12/31 09:15:11;;;;;;;1.00;0.65;;;;;;;16.92;100.00;99295.34;4934320;28;20062;-55
2021/12/31 09:18:14;;;;;;;0.20;0.08;;;;;;;16.94;100.00;99293.53;4933757;28;20058;-55
2021/12/31 09:21:20;;;;;;;1.45;0.28;;;;;;;16.91;100.00;99293.84;4891759;29;20070;-55
2021/12/31 09:24:23;;;;;;;5.68;1.23;;;;;;;16.86;100.00;99303.13;4905831;29;20125;-54
2021/12/31 09:27:28;;;;;;;0.22;0.10;;;;;;;16.84;100.00;99311.31;4938632;28;20070;-54
2021/12/31 09:30:31;;;;;;;0.38;0.10;;;;;;;16.79;100.00;99309.34;4946978;28;20061;-54
2021/12/31 09:33:35;;;;;;;0.28;0.08;;;;;;;16.90;100.00;99314.81;4991965;28;20065;-53
2021/12/31 09:36:39;;;;;;;0.10;0.08;;;;;;;16.86;100.00;99314.38;5013873;28;20069;-54
2021/12/31 09:39:42;;;;;;;1.85;0.05;;;;;;;16.98;100.00;99310.13;4974862;28;20509;-54
2021/12/31 09:42:52;;;;;;;3.75;0.32;;;;;;;16.92;100.00;99313.00;4965178;28;20081;-54
2021/12/31 09:45:55;;;;;;;0.32;0.20;;;;;;;16.94;100.00;99315.25;4966316;28;20061;-54
2021/12/31 09:48:59;;;;;;;0.00;0.00;;;;;;;16.99;100.00;99320.06;4974359;28;20057;-53
2021/12/31 09:52:03;;;;;;;0.32;0.08;;;;;;;16.93;100.00;99337.03;4993054;28;20068;-54
2021/12/31 09:55:07;;;;;;;0.20;0.13;;;;;;;16.99;100.00;99339.75;5009782;28;20120;-55
2021/12/31 09:58:12;;;;;;;0.15;0.10;;;;;;;17.06;100.00;99327.91;4970336;28;20053;-54
2021/12/31 10:01:16;;;;;;;0.20;0.20;;;;;;;17.04;100.00;99339.69;5018309;28;20066;-55
2021/12/31 10:04:20;;;;;;;3.60;0.20;;;;;;;17.19;100.00;99325.16;5017379;28;20056;-53
2021/12/31 10:07:26;;;;;;;0.63;0.47;;;;;;;17.23;100.00;99336.88;5011299;28;20065;-54
2021/12/31 10:10:31;;;;;;;0.00;0.00;;;;;;;17.25;100.00;99357.56;5012715;28;20048;-53
2021/12/31 10:13:51;;;;;;;0.38;0.10;;;;;;;17.34;100.00;99354.34;5004206;28;20057;-53
2021/12/31 10:16:55;;;;;;;11.27;1.20;;;;;;;17.34;100.00;99354.34;4997769;28;20056;-55
2021/12/31 10:19:59;;;;;;;16.58;2.33;;;;;;;17.26;100.00;99370.31;4996879;28;20076;-54
2021/12/31 10:23:14;;;;;;;13.10;2.65;;;;;;;17.04;100.00;99361.44;5029113;28;20076;-53
2021/12/31 10:26:17;;;;;;;7.00;1.13;;;;;;;17.06;100.00;99373.69;5017268;28;20402;-54
2021/12/31 10:29:21;;;;;;;10.38;1.98;;;;;;;17.01;100.00;99376.56;5021806;28;20519;-53
2021/12/31 10:32:28;;;;;;;3.88;1.13;;;;;;;16.90;100.00;99382.31;5029156;28;20056;-53
2021/12/31 10:35:43;;;;;;;5.88;2.22;;;;;;;16.72;100.00;99363.38;5034154;28;20065;-54
2021/12/31 10:38:46;;;;;;;3.70;1.27;;;;;;;16.56;100.00;99365.88;4999050;28;20524;-53
2021/12/31 10:42:00;;;;;;;0.57;0.25;;;;;;;16.56;100.00;99368.69;5005082;28;20107;-53
2021/12/31 10:45:04;;;;;;;1.20;0.65;;;;;;;16.53;100.00;99375.34;5002088;28;20056;-54
2021/12/31 10:48:10;;;;;;;2.83;0.75;;;;;;;16.62;100.00;99385.47;5029977;28;20520;-54
2021/12/31 10:51:35;;;;;;;0.93;0.65;;;;;;;16.57;100.00;99384.25;5022082;28;20065;-54
2021/12/31 10:54:47;;;;;;;8.80;1.58;;;;;;;16.38;100.00;99388.25;5011880;28;20047;-53
2021/12/31 10:57:53;;;;;;;1.38;0.82;;;;;;;16.71;100.00;99404.03;5011794;28;20065;-53
2021/12/31 11:00:59;;;;;;;0.60;0.45;;;;;;;16.46;100.00;99404.00;5039648;28;20053;-54
2021/12/31 11:04:04;;;;;;;3.03;0.40;;;;;;;16.40;100.00;99403.31;5035004;28;20192;-53
2021/12/31 11:07:09;;;;;;;0.80;0.55;;;;;;;16.38;100.00;99417.13;5034231;28;20061;-53
2021/12/31 11:10:14;;;;;;;0.10;0.10;;;;;;;16.51;100.00;99431.34;5007818;28;20620;-53
2021/12/31 11:13:21;;;;;;;7.13;1.05;;;;;;;16.60;100.00;99413.34;5040094;28;20409;-53
2021/12/31 11:16:24;;;;;;;3.30;0.93;;;;;;;16.49;100.00;99422.66;5023673;28;20527;-53
2021/12/31 11:19:28;;;;;;;15.93;0.77;;;;;;;16.59;100.00;99412.59;5023019;28;20051;-53
2021/12/31 11:22:32;;;;;;;1.17;0.65;;;;;;;16.75;100.00;99427.00;5015393;28;20060;-53
2021/12/31 11:25:35;;;;;;;4.80;0.90;;;;;;;16.78;100.00;99423.91;5021787;28;20421;-53
2021/12/31 11:28:41;;;;;;;0.80;0.35;;;;;;;16.83;100.00;99439.19;5032480;28;20068;-53
2021/12/31 11:31:44;;;;;;;14.57;1.00;;;;;;;16.72;100.00;99428.06;5015396;28;20386;-53
2021/12/31 11:35:25;;;;;;;8.77;0.73;;;;;;;16.85;100.00;99417.66;5001156;28;20063;-53
2021/12/31 11:38:28;;;;;;;1.05;0.40;;;;;;;16.77;100.00;99433.63;5048886;28;20048;-52
2021/12/31 11:41:32;;;;;;;6.22;0.50;;;;;;;16.77;100.00;99442.06;5048988;28;20056;-53
2021/12/31 11:44:56;;;;;;;0.50;0.20;;;;;;;16.68;100.00;99451.59;5024202;28;20071;-53
2021/12/31 11:47:59;;;;;;;0.93;0.63;;;;;;;16.39;100.00;99463.63;5037075;28;20401;-53
2021/12/31 11:51:03;;;;;;;4.18;0.55;;;;;;;16.26;100.00;99471.94;5017819;28;20064;-53
2021/12/31 11:54:07;;;;;;;5.35;0.73;;;;;;;16.31;100.00;99479.53;5025625;28;20060;-53
2021/12/31 11:57:29;;;;;;;0.40;0.17;;;;;;;16.39;100.00;99493.78;5002522;28;20410;-53
2021/12/31 12:00:32;;;;;;;0.65;0.17;;;;;;;16.56;100.00;99489.56;5017433;28;20068;-52
2021/12/31 12:03:36;;;;;;;10.80;1.13;;;;;;;16.45;100.00;99495.25;4977405;28;20061;-52
2021/12/31 12:06:59;;;;;;;6.55;0.75;;;;;;;16.46;100.00;99491.16;5011517;28;20540;-52
2021/12/31 12:10:02;;;;;;;15.10;1.55;;;;;;;16.67;100.00;99494.31;5028244;28;20520;-52
2021/12/31 12:13:26;;;;;;;1.55;1.10;;;;;;;16.52;100.00;99494.69;4993517;28;20516;-52
2021/12/31 12:16:54;;;;;;;0.20;0.10;;;;;;;16.21;100.00;99481.16;5019169;28;20068;-52
2021/12/31 12:20:00;;;;;;;0.30;0.15;;;;;;;16.41;100.00;99472.31;4998066;28;20104;-52
2021/12/31 12:23:11;;;;;;;10.30;1.55;;;;;;;16.52;100.00;99482.72;4984020;28;20104;-52
2021/12/31 12:26:20;;;;;;;0.60;0.38;;;;;;;16.65;100.00;99486.38;4981740;28;20065;-53
2021/12/31 12:29:25;;;;;;;6.78;0.75;;;;;;;16.61;100.00;99490.81;4959100;28;20192;-52
2021/12/31 12:35:38;;;;;;;2.47;0.40;;;;;;;16.59;100.00;99494.13;4970595;28;20073;-54
2021/12/31 12:38:42;;;;;;;0.45;0.25;;;;;;;16.62;100.00;99481.84;4975399;28;20057;-53
2021/12/31 12:41:50;;;;;;;4.13;0.38;;;;;;;16.68;100.00;99490.97;4968995;28;20069;-53
2021/12/31 12:45:00;;;;;;;0.10;0.00;;;;;;;16.77;100.00;99481.41;4876657;29;20075;-53
2021/12/31 12:48:04;;;;;;;0.80;0.30;;;;;;;16.70;100.00;99486.88;4886343;29;20076;-53
2021/12/31 12:51:11;;;;;;;2.08;0.35;;;;;;;16.69;100.00;99486.13;4889809;29;20230;-53
2021/12/31 13:07:51;;;;;;;6.85;0.75;;;;;;;16.57;100.00;99495.94;6114146;22;1427201;-55
2021/12/31 13:10:55;;;;;;;3.72;1.13;;;;;;;16.57;100.00;99505.13;6161286;23;20017;-55
2021/12/31 13:13:59;;;;;;;0.95;0.30;;;;;;;16.54;100.00;99500.56;6160941;23;20032;-54
2021/12/31 13:17:03;;;;;;;1.85;0.93;;;;;;;16.53;100.00;99499.03;6161116;23;20036;-55
2021/12/31 13:20:11;;;;;;;7.20;0.80;;;;;;;16.52;100.00;99500.31;6167721;23;20330;-60
2021/12/31 13:23:17;;;;;;;3.55;0.43;;;;;;;16.42;100.00;99518.00;6166720;23;20028;-59
2021/12/31 13:26:27;;;;;;;2.38;0.55;;;;;;;16.41;100.00;99500.41;6159934;23;20048;-57
2021/12/31 13:29:35;;;;;;;0.55;0.47;;;;;;;16.36;100.00;99500.44;6161978;23;20028;-58
2021/12/31 13:32:45;;;;;;;1.08;0.50;;;;;;;16.40;100.00;99503.72;6160817;23;20504;-58
2021/12/31 13:36:13;;;;;;;4.07;0.30;;;;;;;16.42;100.00;99499.09;6160931;23;20469;-58
2021/12/31 13:39:19;;;;;;;16.33;0.65;;;;;;;16.42;100.00;99504.72;6160534;23;20032;-53
2021/12/31 13:42:22;;;;;;;6.07;0.60;;;;;;;16.44;100.00;99488.09;6164485;23;20032;-53
2021/12/31 13:45:26;;;;;;;11.63;1.40;;;;;;;16.47;100.00;99486.28;6162092;23;20449;-53
2021/12/31 13:48:30;;;;;;;4.05;0.40;;;;;;;16.51;100.00;99493.19;6161155;23;20082;-53
2021/12/31 13:51:35;;;;;;;0.90;0.63;;;;;;;16.54;100.00;99478.09;6159761;23;20029;-53
2021/12/31 13:54:41;;;;;;;1.10;0.50;;;;;;;16.48;100.00;99477.31;6161447;23;20048;-53
2021/12/31 13:57:57;;;;;;;1.85;0.20;;;;;;;16.43;100.00;99483.78;6160218;23;20033;-53
2021/12/31 14:01:14;;;;;;;0.77;0.52;;;;;;;16.38;100.00;99473.34;6159931;23;20048;-53
2021/12/31 14:04:18;;;;;;;8.43;0.50;;;;;;;16.42;100.00;99476.63;6159853;23;20472;-53
2021/12/31 14:07:29;;;;;;;4.43;0.20;;;;;;;16.46;100.00;99468.66;6222275;22;20027;-52
2021/12/31 14:10:33;;;;;;;0.85;0.50;;;;;;;16.47;100.00;99475.81;6244768;22;20027;-53
2021/12/31 14:13:38;;;;;;;0.47;0.30;;;;;;;16.44;100.00;99484.53;6244048;22;20027;-53
2021/12/31 14:16:41;;;;;;;2.75;0.28;;;;;;;16.36;100.00;99487.16;6244604;22;20031;-53
2021/12/31 14:19:45;;;;;;;1.85;0.82;;;;;;;16.36;100.00;99498.41;6243308;22;20047;-53
2021/12/31 14:22:51;;;;;;;0.20;0.20;;;;;;;16.31;100.00;99502.00;6243991;22;20047;-53
2021/12/31 14:25:55;;;;;;;3.65;1.20;;;;;;;16.25;100.00;99515.34;6246763;23;20015;-53
2021/12/31 14:28:59;;;;;;;10.68;0.68;;;;;;;16.27;100.00;99507.16;6226505;22;20035;-53
2021/12/31 14:32:03;;;;;;;0.60;0.55;;;;;;;16.16;100.00;99524.09;6244584;22;20034;-53
2021/12/31 14:35:10;;;;;;;3.97;1.00;;;;;;;16.05;100.00;99540.28;6243316;22;20108;-53
2021/12/31 14:38:20;;;;;;;0.20;0.17;;;;;;;16.14;100.00;99537.91;6242906;22;20027;-53
2021/12/31 14:41:23;;;;;;;3.87;0.47;;;;;;;16.05;100.00;99541.03;6242075;22;20023;-53
2021/12/31 14:44:28;;;;;;;1.10;0.60;;;;;;;15.94;100.00;99558.72;6243638;22;20031;-57
2021/12/31 14:47:32;;;;;;;3.60;1.75;;;;;;;15.96;100.00;99565.88;6241663;22;20023;-55
2021/12/31 14:50:36;;;;;;;16.70;1.40;;;;;;;15.82;100.00;99578.97;6243713;22;20055;-54
2021/12/31 14:53:40;;;;;;;2.75;0.20;;;;;;;15.91;100.00;99579.44;6086927;23;20031;-53
2021/12/31 14:56:46;;;;;;;4.22;1.00;;;;;;;15.82;100.00;99584.56;6236398;22;20043;-53
2021/12/31 14:59:49;;;;;;;18.10;1.77;;;;;;;15.94;100.00;99602.88;6241321;22;20031;-53
2021/12/31 15:02:53;;;;;;;6.22;0.55;;;;;;;15.96;100.00;99610.81;6064251;23;20030;-53